sensor_id;sensor_type;location;lat;lon;timestamp;temperature;humidity
484;DHT22;228;48.922;12.198;2022-12-17T00:00:26;-0.10;70.80
484;DHT22;228;48.922;12.198;2022-12-17T00:03:11;-0.60;72.10
484;DHT22;228;48.922;12.198;2022-12-17T00:05:56;-0.50;74.10
484;DHT22;228;48.922;12.198;2022-12-17T00:08:40;-0.20;72.50
484;DHT22;228;48.922;12.198;2022-12-17T00:11:25;0.10;70.70
484;DHT22;228;48.922;12.198;2022-12-17T00:14:09;0.10;70.40
484;DHT22;228;48.922;12.198;2022-12-17T00:16:53;-0.10;70.60
484;DHT22;228;48.922;12.198;2022-12-17T00:19:38;-0.20;71.00
484;DHT22;228;48.922;12.198;2022-12-17T00:22:22;-0.10;70.70
484;DHT22;228;48.922;12.198;2022-12-17T00:25:07;-0.10;71.10
484;DHT22;228;48.922;12.198;2022-12-17T00:27:52;-0.20;71.40
484;DHT22;228;48.922;12.198;2022-12-17T00:30:37;0.00;70.90
484;DHT22;228;48.922;12.198;2022-12-17T00:33:21;-0.20;70.50
484;DHT22;228;48.922;12.198;2022-12-17T00:36:09;-0.10;70.50
484;DHT22;228;48.922;12.198;2022-12-17T00:38:53;-0.30;70.60
484;DHT22;228;48.922;12.198;2022-12-17T00:41:37;-0.10;70.20
484;DHT22;228;48.922;12.198;2022-12-17T00:44:22;-0.20;70.10
484;DHT22;228;48.922;12.198;2022-12-17T00:47:07;0.00;69.70
484;DHT22;228;48.922;12.198;2022-12-17T00:49:51;-0.10;70.10
484;DHT22;228;48.922;12.198;2022-12-17T00:52:35;-0.50;69.60
484;DHT22;228;48.922;12.198;2022-12-17T00:55:20;-0.40;70.80
484;DHT22;228;48.922;12.198;2022-12-17T00:58:04;-0.10;70.20
484;DHT22;228;48.922;12.198;2022-12-17T01:00:48;-0.50;70.40
484;DHT22;228;48.922;12.198;2022-12-17T01:03:33;-0.60;70.30
484;DHT22;228;48.922;12.198;2022-12-17T01:06:17;-0.30;70.60
484;DHT22;228;48.922;12.198;2022-12-17T01:09:01;-0.30;69.70
484;DHT22;228;48.922;12.198;2022-12-17T01:11:47;-0.30;70.10
484;DHT22;228;48.922;12.198;2022-12-17T01:14:31;-0.60;71.00
484;DHT22;228;48.922;12.198;2022-12-17T01:17:16;-0.70;70.70
484;DHT22;228;48.922;12.198;2022-12-17T01:20:01;-0.90;71.90
484;DHT22;228;48.922;12.198;2022-12-17T01:22:46;-0.90;72.10
484;DHT22;228;48.922;12.198;2022-12-17T01:25:30;-0.90;72.60
484;DHT22;228;48.922;12.198;2022-12-17T01:28:22;-0.60;72.10
484;DHT22;228;48.922;12.198;2022-12-17T01:31:08;-0.70;71.40
484;DHT22;228;48.922;12.198;2022-12-17T01:33:52;-0.90;71.40
484;DHT22;228;48.922;12.198;2022-12-17T01:36:37;-0.90;72.80
484;DHT22;228;48.922;12.198;2022-12-17T01:39:21;-0.70;72.20
484;DHT22;228;48.922;12.198;2022-12-17T01:42:13;-0.60;71.80
484;DHT22;228;48.922;12.198;2022-12-17T01:44:58;-0.80;71.90
484;DHT22;228;48.922;12.198;2022-12-17T01:47:49;-1.00;72.40
484;DHT22;228;48.922;12.198;2022-12-17T01:50:41;-0.80;73.50
484;DHT22;228;48.922;12.198;2022-12-17T01:53:32;-1.00;73.10
484;DHT22;228;48.922;12.198;2022-12-17T01:56:19;-1.10;73.40
484;DHT22;228;48.922;12.198;2022-12-17T01:59:06;-0.80;73.60
484;DHT22;228;48.922;12.198;2022-12-17T02:01:52;-0.70;73.20
484;DHT22;228;48.922;12.198;2022-12-17T02:04:37;-0.70;72.90
484;DHT22;228;48.922;12.198;2022-12-17T02:11:04;-0.30;71.40
484;DHT22;228;48.922;12.198;2022-12-17T02:14:09;-0.60;70.60
484;DHT22;228;48.922;12.198;2022-12-17T02:17:02;-0.30;71.20
484;DHT22;228;48.922;12.198;2022-12-17T02:20:13;-0.20;70.10
484;DHT22;228;48.922;12.198;2022-12-17T02:29:24;-0.70;72.30
484;DHT22;228;48.922;12.198;2022-12-17T02:32:12;-0.30;71.90
484;DHT22;228;48.922;12.198;2022-12-17T02:34:59;0.00;70.60
484;DHT22;228;48.922;12.198;2022-12-17T02:37:46;0.10;70.10
484;DHT22;228;48.922;12.198;2022-12-17T02:40:33;0.00;69.40
484;DHT22;228;48.922;12.198;2022-12-17T02:43:21;0.00;70.00
484;DHT22;228;48.922;12.198;2022-12-17T02:46:07;-0.20;69.80
484;DHT22;228;48.922;12.198;2022-12-17T02:48:52;-0.30;70.30
484;DHT22;228;48.922;12.198;2022-12-17T02:51:37;-0.40;70.90
484;DHT22;228;48.922;12.198;2022-12-17T02:54:31;-0.30;71.80
484;DHT22;228;48.922;12.198;2022-12-17T02:57:16;-0.40;70.60
484;DHT22;228;48.922;12.198;2022-12-17T03:00:01;-0.30;71.30
484;DHT22;228;48.922;12.198;2022-12-17T03:02:46;0.00;70.90
484;DHT22;228;48.922;12.198;2022-12-17T03:05:30;0.00;70.80
484;DHT22;228;48.922;12.198;2022-12-17T03:08:14;0.00;70.50
484;DHT22;228;48.922;12.198;2022-12-17T03:10:59;0.20;70.70
484;DHT22;228;48.922;12.198;2022-12-17T03:13:43;0.20;69.20
484;DHT22;228;48.922;12.198;2022-12-17T03:16:28;0.20;68.50
484;DHT22;228;48.922;12.198;2022-12-17T03:19:13;0.30;68.60
484;DHT22;228;48.922;12.198;2022-12-17T03:21:57;0.30;67.80
484;DHT22;228;48.922;12.198;2022-12-17T03:24:41;0.00;68.70
484;DHT22;228;48.922;12.198;2022-12-17T03:27:26;-0.40;69.80
484;DHT22;228;48.922;12.198;2022-12-17T03:30:11;-0.60;70.40
484;DHT22;228;48.922;12.198;2022-12-17T03:32:56;-0.50;70.40
484;DHT22;228;48.922;12.198;2022-12-17T03:35:40;-0.70;70.70
484;DHT22;228;48.922;12.198;2022-12-17T03:38:25;-0.70;70.90
484;DHT22;228;48.922;12.198;2022-12-17T03:41:09;-0.70;71.40
484;DHT22;228;48.922;12.198;2022-12-17T03:43:53;-1.00;71.30
484;DHT22;228;48.922;12.198;2022-12-17T03:46:37;-1.20;71.80
484;DHT22;228;48.922;12.198;2022-12-17T03:49:22;-1.20;71.60
484;DHT22;228;48.922;12.198;2022-12-17T03:52:06;-1.00;71.40
484;DHT22;228;48.922;12.198;2022-12-17T03:54:50;-0.90;71.40
484;DHT22;228;48.922;12.198;2022-12-17T03:57:35;-0.70;71.60
484;DHT22;228;48.922;12.198;2022-12-17T04:00:19;-0.20;69.80
484;DHT22;228;48.922;12.198;2022-12-17T04:03:04;0.00;67.50
484;DHT22;228;48.922;12.198;2022-12-17T04:05:48;0.20;67.60
484;DHT22;228;48.922;12.198;2022-12-17T04:08:33;0.60;66.30
484;DHT22;228;48.922;12.198;2022-12-17T04:11:17;0.30;65.90
484;DHT22;228;48.922;12.198;2022-12-17T04:14:02;0.40;66.00
484;DHT22;228;48.922;12.198;2022-12-17T04:16:47;0.30;65.90
484;DHT22;228;48.922;12.198;2022-12-17T04:19:31;0.00;66.70
484;DHT22;228;48.922;12.198;2022-12-17T04:22:16;-0.40;68.00
484;DHT22;228;48.922;12.198;2022-12-17T04:25:00;-0.40;67.10
484;DHT22;228;48.922;12.198;2022-12-17T04:27:45;-0.60;68.00
484;DHT22;228;48.922;12.198;2022-12-17T04:30:30;-0.10;68.10
484;DHT22;228;48.922;12.198;2022-12-17T04:33:14;0.40;65.90
484;DHT22;228;48.922;12.198;2022-12-17T04:35:58;0.50;64.70
484;DHT22;228;48.922;12.198;2022-12-17T04:38:43;0.50;64.90
484;DHT22;228;48.922;12.198;2022-12-17T04:41:27;0.30;63.70
484;DHT22;228;48.922;12.198;2022-12-17T04:44:11;0.10;64.10
484;DHT22;228;48.922;12.198;2022-12-17T04:46:56;0.00;64.90
484;DHT22;228;48.922;12.198;2022-12-17T04:49:54;0.40;64.70
484;DHT22;228;48.922;12.198;2022-12-17T04:52:38;0.20;64.30
484;DHT22;228;48.922;12.198;2022-12-17T04:55:23;-0.10;65.20
484;DHT22;228;48.922;12.198;2022-12-17T04:58:08;-0.20;66.00
484;DHT22;228;48.922;12.198;2022-12-17T05:00:53;-0.30;65.40
484;DHT22;228;48.922;12.198;2022-12-17T05:03:55;-0.60;66.40
484;DHT22;228;48.922;12.198;2022-12-17T05:06:40;-0.80;66.70
484;DHT22;228;48.922;12.198;2022-12-17T05:09:24;-1.00;67.80
484;DHT22;228;48.922;12.198;2022-12-17T05:12:09;-0.70;67.60
484;DHT22;228;48.922;12.198;2022-12-17T05:14:53;-0.30;66.60
484;DHT22;228;48.922;12.198;2022-12-17T05:17:37;0.00;64.90
484;DHT22;228;48.922;12.198;2022-12-17T05:20:21;-0.20;64.70
484;DHT22;228;48.922;12.198;2022-12-17T05:23:07;0.00;65.00
484;DHT22;228;48.922;12.198;2022-12-17T05:26:17;0.60;64.50
484;DHT22;228;48.922;12.198;2022-12-17T05:29:07;0.60;62.90
484;DHT22;228;48.922;12.198;2022-12-17T05:31:53;0.20;63.90
484;DHT22;228;48.922;12.198;2022-12-17T05:34:38;0.00;64.10
484;DHT22;228;48.922;12.198;2022-12-17T05:37:24;0.30;64.50
484;DHT22;228;48.922;12.198;2022-12-17T05:40:08;0.40;64.30
484;DHT22;228;48.922;12.198;2022-12-17T05:43:05;0.70;63.50
484;DHT22;228;48.922;12.198;2022-12-17T05:45:51;0.90;62.50
484;DHT22;228;48.922;12.198;2022-12-17T05:48:36;1.40;61.60
484;DHT22;228;48.922;12.198;2022-12-17T05:51:21;1.70;60.20
484;DHT22;228;48.922;12.198;2022-12-17T05:54:06;2.00;59.30
484;DHT22;228;48.922;12.198;2022-12-17T05:56:51;2.10;58.80
484;DHT22;228;48.922;12.198;2022-12-17T05:59:50;1.90;58.30
484;DHT22;228;48.922;12.198;2022-12-17T06:02:59;1.60;58.80
484;DHT22;228;48.922;12.198;2022-12-17T06:05:43;1.20;60.20
484;DHT22;228;48.922;12.198;2022-12-17T06:08:28;1.30;60.20
484;DHT22;228;48.922;12.198;2022-12-17T06:11:13;0.70;60.40
484;DHT22;228;48.922;12.198;2022-12-17T06:13:57;0.50;61.70
484;DHT22;228;48.922;12.198;2022-12-17T06:16:41;0.40;62.50
484;DHT22;228;48.922;12.198;2022-12-17T06:19:26;0.10;63.20
484;DHT22;228;48.922;12.198;2022-12-17T06:22:10;0.10;63.90
484;DHT22;228;48.922;12.198;2022-12-17T06:24:55;0.20;64.20
484;DHT22;228;48.922;12.198;2022-12-17T06:27:40;0.40;63.30
484;DHT22;228;48.922;12.198;2022-12-17T06:30:24;0.30;62.80
484;DHT22;228;48.922;12.198;2022-12-17T06:33:10;0.50;63.30
484;DHT22;228;48.922;12.198;2022-12-17T06:35:56;0.70;62.30
484;DHT22;228;48.922;12.198;2022-12-17T06:38:42;1.10;61.20
484;DHT22;228;48.922;12.198;2022-12-17T06:41:27;1.20;60.30
484;DHT22;228;48.922;12.198;2022-12-17T06:44:12;1.30;59.70
484;DHT22;228;48.922;12.198;2022-12-17T06:46:57;1.30;59.40
484;DHT22;228;48.922;12.198;2022-12-17T06:49:42;0.90;59.80
484;DHT22;228;48.922;12.198;2022-12-17T06:52:27;0.20;61.70
484;DHT22;228;48.922;12.198;2022-12-17T06:55:11;-0.60;64.10
484;DHT22;228;48.922;12.198;2022-12-17T06:57:59;-0.60;66.50
484;DHT22;228;48.922;12.198;2022-12-17T07:00:45;-0.90;66.50
484;DHT22;228;48.922;12.198;2022-12-17T07:03:29;-0.90;68.10
484;DHT22;228;48.922;12.198;2022-12-17T07:06:14;-0.40;67.10
484;DHT22;228;48.922;12.198;2022-12-17T07:08:59;0.00;66.00
484;DHT22;228;48.922;12.198;2022-12-17T07:11:44;0.40;64.90
484;DHT22;228;48.922;12.198;2022-12-17T07:14:28;0.70;62.80
484;DHT22;228;48.922;12.198;2022-12-17T07:17:13;0.90;61.80
484;DHT22;228;48.922;12.198;2022-12-17T07:19:57;0.80;61.70
484;DHT22;228;48.922;12.198;2022-12-17T07:22:41;0.50;62.00
484;DHT22;228;48.922;12.198;2022-12-17T07:25:26;0.10;64.00
484;DHT22;228;48.922;12.198;2022-12-17T07:28:10;-0.20;65.10
484;DHT22;228;48.922;12.198;2022-12-17T07:30:55;0.10;65.20
484;DHT22;228;48.922;12.198;2022-12-17T07:33:40;-0.20;65.60
484;DHT22;228;48.922;12.198;2022-12-17T07:36:24;0.00;65.80
484;DHT22;228;48.922;12.198;2022-12-17T07:39:08;0.10;65.60
484;DHT22;228;48.922;12.198;2022-12-17T07:41:53;0.30;65.00
484;DHT22;228;48.922;12.198;2022-12-17T07:44:37;0.50;64.40
484;DHT22;228;48.922;12.198;2022-12-17T07:47:22;0.10;64.30
484;DHT22;228;48.922;12.198;2022-12-17T07:50:06;0.00;65.40
484;DHT22;228;48.922;12.198;2022-12-17T07:52:59;-0.20;65.80
484;DHT22;228;48.922;12.198;2022-12-17T07:55:44;-0.20;66.10
484;DHT22;228;48.922;12.198;2022-12-17T07:58:29;-0.10;65.70
484;DHT22;228;48.922;12.198;2022-12-17T08:01:13;-0.40;66.60
484;DHT22;228;48.922;12.198;2022-12-17T08:03:58;-0.90;67.40
484;DHT22;228;48.922;12.198;2022-12-17T08:06:42;-0.90;67.80
484;DHT22;228;48.922;12.198;2022-12-17T08:09:27;-0.90;67.90
484;DHT22;228;48.922;12.198;2022-12-17T08:12:12;-1.00;67.90
484;DHT22;228;48.922;12.198;2022-12-17T08:14:56;-0.80;67.60
484;DHT22;228;48.922;12.198;2022-12-17T08:17:40;-0.30;66.40
484;DHT22;228;48.922;12.198;2022-12-17T08:20:25;-0.70;65.70
484;DHT22;228;48.922;12.198;2022-12-17T08:23:10;-1.00;67.30
484;DHT22;228;48.922;12.198;2022-12-17T08:25:55;-1.20;68.20
484;DHT22;228;48.922;12.198;2022-12-17T08:28:39;-1.10;67.90
484;DHT22;228;48.922;12.198;2022-12-17T08:31:24;-1.10;68.10
484;DHT22;228;48.922;12.198;2022-12-17T08:34:08;-1.00;67.90
484;DHT22;228;48.922;12.198;2022-12-17T08:36:53;-1.20;67.40
484;DHT22;228;48.922;12.198;2022-12-17T08:39:37;-1.00;67.80
484;DHT22;228;48.922;12.198;2022-12-17T08:42:22;-1.00;67.70
484;DHT22;228;48.922;12.198;2022-12-17T08:45:07;-0.90;67.10
484;DHT22;228;48.922;12.198;2022-12-17T08:47:52;-0.90;66.60
484;DHT22;228;48.922;12.198;2022-12-17T08:50:36;-0.80;66.30
484;DHT22;228;48.922;12.198;2022-12-17T08:53:21;-0.30;65.60
484;DHT22;228;48.922;12.198;2022-12-17T08:56:05;-0.20;63.50
484;DHT22;228;48.922;12.198;2022-12-17T08:58:50;-0.20;63.00
484;DHT22;228;48.922;12.198;2022-12-17T09:01:34;-0.60;63.10
484;DHT22;228;48.922;12.198;2022-12-17T09:04:19;-0.70;64.00
484;DHT22;228;48.922;12.198;2022-12-17T09:07:03;-0.50;64.50
484;DHT22;228;48.922;12.198;2022-12-17T09:09:48;-0.40;64.00
484;DHT22;228;48.922;12.198;2022-12-17T09:12:32;-0.50;63.80
484;DHT22;228;48.922;12.198;2022-12-17T09:15:17;-0.80;64.60
484;DHT22;228;48.922;12.198;2022-12-17T09:18:02;-1.00;65.60
484;DHT22;228;48.922;12.198;2022-12-17T09:20:54;-1.10;66.00
484;DHT22;228;48.922;12.198;2022-12-17T09:23:39;-0.90;65.90
484;DHT22;228;48.922;12.198;2022-12-17T09:26:24;-0.40;65.30
484;DHT22;228;48.922;12.198;2022-12-17T09:29:09;0.00;62.90
484;DHT22;228;48.922;12.198;2022-12-17T09:31:54;-0.20;62.30
484;DHT22;228;48.922;12.198;2022-12-17T09:34:38;-0.30;62.60
484;DHT22;228;48.922;12.198;2022-12-17T09:37:22;-0.30;62.40
484;DHT22;228;48.922;12.198;2022-12-17T09:40:13;-0.20;62.80
484;DHT22;228;48.922;12.198;2022-12-17T09:43:29;-0.10;63.00
484;DHT22;228;48.922;12.198;2022-12-17T09:46:36;-0.10;62.60
484;DHT22;228;48.922;12.198;2022-12-17T09:49:27;0.10;62.40
484;DHT22;228;48.922;12.198;2022-12-17T09:55:33;0.10;62.40
484;DHT22;228;48.922;12.198;2022-12-17T09:58:26;0.40;61.40
484;DHT22;228;48.922;12.198;2022-12-17T10:01:17;0.60;60.40
484;DHT22;228;48.922;12.198;2022-12-17T10:04:09;0.60;60.40
484;DHT22;228;48.922;12.198;2022-12-17T10:07:00;0.60;59.70
484;DHT22;228;48.922;12.198;2022-12-17T10:09:49;0.70;60.10
484;DHT22;228;48.922;12.198;2022-12-17T10:12:35;0.50;60.40
484;DHT22;228;48.922;12.198;2022-12-17T10:15:19;0.70;60.30
484;DHT22;228;48.922;12.198;2022-12-17T10:18:06;1.30;59.40
484;DHT22;228;48.922;12.198;2022-12-17T10:21:11;1.70;58.00
484;DHT22;228;48.922;12.198;2022-12-17T10:24:09;1.60;57.40
484;DHT22;228;48.922;12.198;2022-12-17T10:26:54;1.60;57.50
484;DHT22;228;48.922;12.198;2022-12-17T10:29:41;1.20;58.30
484;DHT22;228;48.922;12.198;2022-12-17T10:32:27;1.50;58.30
484;DHT22;228;48.922;12.198;2022-12-17T10:35:17;1.50;57.90
484;DHT22;228;48.922;12.198;2022-12-17T10:38:25;1.60;57.70
484;DHT22;228;48.922;12.198;2022-12-17T10:41:23;1.80;57.60
484;DHT22;228;48.922;12.198;2022-12-17T10:44:30;2.10;57.10
484;DHT22;228;48.922;12.198;2022-12-17T10:47:24;2.40;56.80
484;DHT22;228;48.922;12.198;2022-12-17T10:50:21;2.40;56.60
484;DHT22;228;48.922;12.198;2022-12-17T10:53:23;2.40;56.40
484;DHT22;228;48.922;12.198;2022-12-17T10:56:21;2.70;55.90
484;DHT22;228;48.922;12.198;2022-12-17T10:59:30;2.70;56.20
484;DHT22;228;48.922;12.198;2022-12-17T11:02:25;3.00;55.90
484;DHT22;228;48.922;12.198;2022-12-17T11:05:14;2.90;55.00
484;DHT22;228;48.922;12.198;2022-12-17T11:08:03;2.70;54.70
484;DHT22;228;48.922;12.198;2022-12-17T11:10:48;2.30;55.70
484;DHT22;228;48.922;12.198;2022-12-17T11:13:36;2.40;56.10
484;DHT22;228;48.922;12.198;2022-12-17T11:16:28;2.50;55.50
484;DHT22;228;48.922;12.198;2022-12-17T11:22:52;2.90;55.00
484;DHT22;228;48.922;12.198;2022-12-17T11:25:55;2.90;54.20
484;DHT22;228;48.922;12.198;2022-12-17T11:28:43;4.20;52.70
484;DHT22;228;48.922;12.198;2022-12-17T11:38:38;8.80;40.60
484;DHT22;228;48.922;12.198;2022-12-17T11:48:28;6.80;44.10
484;DHT22;228;48.922;12.198;2022-12-17T11:51:27;9.00;40.60
484;DHT22;228;48.922;12.198;2022-12-17T11:54:28;10.90;33.50
484;DHT22;228;48.922;12.198;2022-12-17T11:57:38;11.10;32.00
484;DHT22;228;48.922;12.198;2022-12-17T12:00:54;12.20;31.70
484;DHT22;228;48.922;12.198;2022-12-17T12:08:04;14.10;27.80
484;DHT22;228;48.922;12.198;2022-12-17T12:30:10;15.70;24.00
484;DHT22;228;48.922;12.198;2022-12-17T12:33:19;14.20;26.00
484;DHT22;228;48.922;12.198;2022-12-17T12:36:26;14.90;26.50
484;DHT22;228;48.922;12.198;2022-12-17T12:39:12;14.40;26.30
484;DHT22;228;48.922;12.198;2022-12-17T12:48:54;10.50;31.40
484;DHT22;228;48.922;12.198;2022-12-17T12:51:42;9.30;34.70
484;DHT22;228;48.922;12.198;2022-12-17T12:57:56;7.50;39.70
484;DHT22;228;48.922;12.198;2022-12-17T13:03:32;6.40;42.50
484;DHT22;228;48.922;12.198;2022-12-17T13:09:37;5.50;44.70
484;DHT22;228;48.922;12.198;2022-12-17T13:13:05;5.40;45.60
484;DHT22;228;48.922;12.198;2022-12-17T13:15:17;5.40;45.90
484;DHT22;228;48.922;12.198;2022-12-17T13:18:23;5.30;45.90
484;DHT22;228;48.922;12.198;2022-12-17T13:20:56;5.40;46.30
484;DHT22;228;48.922;12.198;2022-12-17T13:23:30;5.50;46.10
484;DHT22;228;48.922;12.198;2022-12-17T13:26:29;5.70;45.70
484;DHT22;228;48.922;12.198;2022-12-17T13:29:18;5.80;45.40
484;DHT22;228;48.922;12.198;2022-12-17T13:35:09;9.70;38.80
484;DHT22;228;48.922;12.198;2022-12-17T13:38:08;12.20;31.70
484;DHT22;228;48.922;12.198;2022-12-17T13:43:32;14.60;28.10
484;DHT22;228;48.922;12.198;2022-12-17T13:46:02;15.70;27.10
484;DHT22;228;48.922;12.198;2022-12-17T13:48:28;15.70;26.10
484;DHT22;228;48.922;12.198;2022-12-17T13:51:02;15.20;26.10
484;DHT22;228;48.922;12.198;2022-12-17T13:53:31;14.60;26.70
484;DHT22;228;48.922;12.198;2022-12-17T13:56:00;13.80;27.30
484;DHT22;228;48.922;12.198;2022-12-17T13:58:28;13.00;28.20
484;DHT22;228;48.922;12.198;2022-12-17T14:01:10;12.40;28.80
484;DHT22;228;48.922;12.198;2022-12-17T14:03:54;11.60;30.00
484;DHT22;228;48.922;12.198;2022-12-17T14:06:25;10.90;30.70
484;DHT22;228;48.922;12.198;2022-12-17T14:08:55;10.00;32.60
484;DHT22;228;48.922;12.198;2022-12-17T14:11:22;9.30;34.90
484;DHT22;228;48.922;12.198;2022-12-17T14:17:05;7.90;38.30
484;DHT22;228;48.922;12.198;2022-12-17T14:19:32;7.60;38.60
484;DHT22;228;48.922;12.198;2022-12-17T14:21:59;7.20;39.50
484;DHT22;228;48.922;12.198;2022-12-17T14:24:27;6.80;40.50
484;DHT22;228;48.922;12.198;2022-12-17T14:26:56;6.50;41.60
484;DHT22;228;48.922;12.198;2022-12-17T14:29:31;6.30;42.50
484;DHT22;228;48.922;12.198;2022-12-17T14:31:59;6.20;42.70
484;DHT22;228;48.922;12.198;2022-12-17T14:34:28;6.10;42.80
484;DHT22;228;48.922;12.198;2022-12-17T14:36:56;5.90;43.50
484;DHT22;228;48.922;12.198;2022-12-17T14:39:31;5.50;44.50
484;DHT22;228;48.922;12.198;2022-12-17T14:42:07;5.30;45.00
484;DHT22;228;48.922;12.198;2022-12-17T14:45:02;5.00;46.10
484;DHT22;228;48.922;12.198;2022-12-17T14:47:33;4.70;46.80
484;DHT22;228;48.922;12.198;2022-12-17T14:52:47;4.30;47.30
484;DHT22;228;48.922;12.198;2022-12-17T14:55:58;4.00;47.70
484;DHT22;228;48.922;12.198;2022-12-17T14:58:25;3.70;48.90
484;DHT22;228;48.922;12.198;2022-12-17T15:00:58;3.40;49.50
484;DHT22;228;48.922;12.198;2022-12-17T15:03:36;3.20;50.00
484;DHT22;228;48.922;12.198;2022-12-17T15:06:07;3.00;50.90
484;DHT22;228;48.922;12.198;2022-12-17T15:08:38;2.80;51.60
484;DHT22;228;48.922;12.198;2022-12-17T15:11:09;2.50;52.90
484;DHT22;228;48.922;12.198;2022-12-17T15:13:37;2.30;53.50
484;DHT22;228;48.922;12.198;2022-12-17T15:16:03;2.10;54.20
484;DHT22;228;48.922;12.198;2022-12-17T15:18:30;1.90;55.00
484;DHT22;228;48.922;12.198;2022-12-17T15:21:05;1.80;55.50
484;DHT22;228;48.922;12.198;2022-12-17T15:23:31;1.70;54.60
484;DHT22;228;48.922;12.198;2022-12-17T15:25:58;1.60;53.60
484;DHT22;228;48.922;12.198;2022-12-17T15:28:26;1.40;54.10
484;DHT22;228;48.922;12.198;2022-12-17T15:30:52;1.20;56.20
484;DHT22;228;48.922;12.198;2022-12-17T15:33:18;1.00;57.40
484;DHT22;228;48.922;12.198;2022-12-17T15:35:44;0.90;58.30
484;DHT22;228;48.922;12.198;2022-12-17T15:38:11;0.80;57.50
484;DHT22;228;48.922;12.198;2022-12-17T15:40:38;0.70;56.80
484;DHT22;228;48.922;12.198;2022-12-17T15:43:04;0.50;57.00
484;DHT22;228;48.922;12.198;2022-12-17T15:48:18;0.20;57.50
484;DHT22;228;48.922;12.198;2022-12-17T15:50:46;0.00;57.80
484;DHT22;228;48.922;12.198;2022-12-17T15:53:12;-0.10;58.00
484;DHT22;228;48.922;12.198;2022-12-17T15:55:39;-0.20;58.30
484;DHT22;228;48.922;12.198;2022-12-17T15:58:06;-0.30;58.60
484;DHT22;228;48.922;12.198;2022-12-17T16:00:34;-0.40;58.60
484;DHT22;228;48.922;12.198;2022-12-17T16:03:00;-0.50;58.60
484;DHT22;228;48.922;12.198;2022-12-17T16:05:26;-0.60;58.60
484;DHT22;228;48.922;12.198;2022-12-17T16:07:52;-0.70;58.80
484;DHT22;228;48.922;12.198;2022-12-17T16:10:18;-0.80;59.70
484;DHT22;228;48.922;12.198;2022-12-17T16:12:44;-0.80;59.70
484;DHT22;228;48.922;12.198;2022-12-17T16:15:11;-1.00;59.60
484;DHT22;228;48.922;12.198;2022-12-17T16:17:38;-1.00;59.80
484;DHT22;228;48.922;12.198;2022-12-17T16:20:05;-1.10;59.50
484;DHT22;228;48.922;12.198;2022-12-17T16:22:32;-1.10;59.40
484;DHT22;228;48.922;12.198;2022-12-17T16:24:58;-1.20;58.70
484;DHT22;228;48.922;12.198;2022-12-17T16:27:24;-1.30;59.00
484;DHT22;228;48.922;12.198;2022-12-17T16:29:50;-1.40;59.60
484;DHT22;228;48.922;12.198;2022-12-17T16:32:16;-1.40;59.90
484;DHT22;228;48.922;12.198;2022-12-17T16:34:43;-1.50;60.00
484;DHT22;228;48.922;12.198;2022-12-17T16:37:10;-1.50;60.30
484;DHT22;228;48.922;12.198;2022-12-17T16:39:37;-1.60;61.50
484;DHT22;228;48.922;12.198;2022-12-17T16:42:03;-1.60;61.90
484;DHT22;228;48.922;12.198;2022-12-17T16:44:29;-1.70;62.20
484;DHT22;228;48.922;12.198;2022-12-17T16:46:55;-1.70;62.50
484;DHT22;228;48.922;12.198;2022-12-17T16:49:22;-1.80;63.00
484;DHT22;228;48.922;12.198;2022-12-17T16:51:53;-1.90;64.40
484;DHT22;228;48.922;12.198;2022-12-17T16:54:22;-1.90;64.60
484;DHT22;228;48.922;12.198;2022-12-17T16:56:51;-1.80;64.40
484;DHT22;228;48.922;12.198;2022-12-17T16:59:17;-1.80;63.60
484;DHT22;228;48.922;12.198;2022-12-17T17:01:46;-1.80;63.40
484;DHT22;228;48.922;12.198;2022-12-17T17:04:15;-1.90;63.30
484;DHT22;228;48.922;12.198;2022-12-17T17:06:45;-1.80;63.30
484;DHT22;228;48.922;12.198;2022-12-17T17:09:16;-1.90;62.60
484;DHT22;228;48.922;12.198;2022-12-17T17:11:42;-2.00;62.30
484;DHT22;228;48.922;12.198;2022-12-17T17:14:09;-2.00;62.10
484;DHT22;228;48.922;12.198;2022-12-17T17:16:35;-2.00;62.80
484;DHT22;228;48.922;12.198;2022-12-17T17:19:02;-2.00;63.60
484;DHT22;228;48.922;12.198;2022-12-17T17:21:40;-1.90;65.10
484;DHT22;228;48.922;12.198;2022-12-17T17:24:10;-1.90;64.80
484;DHT22;228;48.922;12.198;2022-12-17T17:26:38;-1.90;65.00
484;DHT22;228;48.922;12.198;2022-12-17T17:29:05;-1.90;65.10
484;DHT22;228;48.922;12.198;2022-12-17T17:31:31;-1.90;64.50
484;DHT22;228;48.922;12.198;2022-12-17T17:33:58;-1.90;64.40
484;DHT22;228;48.922;12.198;2022-12-17T17:36:27;-2.00;64.00
484;DHT22;228;48.922;12.198;2022-12-17T17:39:07;-2.00;63.50
484;DHT22;228;48.922;12.198;2022-12-17T17:41:34;-2.10;62.00
484;DHT22;228;48.922;12.198;2022-12-17T17:44:10;-2.10;62.10
484;DHT22;228;48.922;12.198;2022-12-17T17:46:39;-2.20;60.40
484;DHT22;228;48.922;12.198;2022-12-17T17:49:16;-2.30;59.90
484;DHT22;228;48.922;12.198;2022-12-17T17:52:06;-2.40;59.60
484;DHT22;228;48.922;12.198;2022-12-17T17:54:45;-2.50;58.90
484;DHT22;228;48.922;12.198;2022-12-17T17:57:42;-2.70;58.90
484;DHT22;228;48.922;12.198;2022-12-17T18:03:14;-2.90;62.30
484;DHT22;228;48.922;12.198;2022-12-17T18:05:41;-3.00;62.40
484;DHT22;228;48.922;12.198;2022-12-17T18:08:08;-3.00;61.70
484;DHT22;228;48.922;12.198;2022-12-17T18:10:35;-2.90;62.20
484;DHT22;228;48.922;12.198;2022-12-17T18:13:12;-3.20;63.50
484;DHT22;228;48.922;12.198;2022-12-17T18:16:03;-3.20;64.30
484;DHT22;228;48.922;12.198;2022-12-17T18:24:37;-3.20;61.30
484;DHT22;228;48.922;12.198;2022-12-17T18:35:32;-3.50;58.90
484;DHT22;228;48.922;12.198;2022-12-17T18:38:13;-3.60;58.40
484;DHT22;228;48.922;12.198;2022-12-17T20:11:24;-2.20;68.60
484;DHT22;228;48.922;12.198;2022-12-17T20:16:59;-2.10;67.90
484;DHT22;228;48.922;12.198;2022-12-17T20:19:29;-1.90;67.70
484;DHT22;228;48.922;12.198;2022-12-17T20:22:01;-1.80;67.50
484;DHT22;228;48.922;12.198;2022-12-17T20:24:34;-1.70;67.30
484;DHT22;228;48.922;12.198;2022-12-17T20:27:09;-1.90;67.90
484;DHT22;228;48.922;12.198;2022-12-17T20:29:37;-2.10;68.20
484;DHT22;228;48.922;12.198;2022-12-17T20:32:04;-1.90;67.80
484;DHT22;228;48.922;12.198;2022-12-17T20:34:30;-1.60;67.40
484;DHT22;228;48.922;12.198;2022-12-17T20:36:56;-1.50;66.90
484;DHT22;228;48.922;12.198;2022-12-17T20:39:23;-1.40;66.90
484;DHT22;228;48.922;12.198;2022-12-17T20:41:50;-1.30;66.10
484;DHT22;228;48.922;12.198;2022-12-17T20:44:16;-1.30;65.10
484;DHT22;228;48.922;12.198;2022-12-17T20:46:42;-1.20;65.10
484;DHT22;228;48.922;12.198;2022-12-17T20:49:10;-1.30;65.10
484;DHT22;228;48.922;12.198;2022-12-17T20:51:37;-1.50;65.90
484;DHT22;228;48.922;12.198;2022-12-17T20:54:04;-1.30;66.10
484;DHT22;228;48.922;12.198;2022-12-17T20:56:32;-1.00;65.40
484;DHT22;228;48.922;12.198;2022-12-17T20:59:07;-1.10;64.80
484;DHT22;228;48.922;12.198;2022-12-17T21:01:36;-0.90;64.80
484;DHT22;228;48.922;12.198;2022-12-17T21:04:03;-0.90;64.00
484;DHT22;228;48.922;12.198;2022-12-17T21:06:39;-1.00;64.70
484;DHT22;228;48.922;12.198;2022-12-17T21:09:11;-1.20;65.70
484;DHT22;228;48.922;12.198;2022-12-17T21:11:39;-1.10;66.10
484;DHT22;228;48.922;12.198;2022-12-17T21:14:09;-1.00;65.80
484;DHT22;228;48.922;12.198;2022-12-17T21:16:38;-0.80;65.40